Time;durP1;ratioP1;P1;durP2;ratioP2;P2;SDS_P1;SDS_P2;PMS_P1;PMS_P2;Temp;Humidity;BMP_temperature;BMP_pressure;BME280_temperature;BME280_humidity;BME280_pressure;Samples;Min_cycle;Max_cycle;Signal;HPM_P1;HPM_P2
2021/11/01 00:01:02;;;;;;;31.00;14.03;;;4.50;1.00;;;;;;4457002;27;657199;-80
2021/11/01 00:03:49;;;;;;;30.63;13.63;;;4.40;1.00;;;;;;4389968;27;656584;-79
2021/11/01 00:06:38;;;;;;;29.60;13.67;;;4.40;1.00;;;;;;4389993;27;656493;-79
2021/11/01 00:09:28;;;;;;;30.03;14.30;;;4.40;1.00;;;;;;4390620;28;657264;-78
2021/11/01 00:12:16;;;;;;;26.23;13.20;;;4.40;1.00;;;;;;4432522;27;656905;-79
2021/11/01 00:15:04;;;;;;;28.70;14.17;;;4.40;1.00;;;;;;4470311;27;656916;-80
2021/11/01 00:17:51;;;;;;;26.70;12.97;;;4.30;1.00;;;;;;4394598;27;656767;-80
2021/11/01 00:20:39;;;;;;;29.50;13.53;;;4.30;1.00;;;;;;4440405;27;656437;-80
2021/11/01 00:23:28;;;;;;;28.83;13.23;;;4.30;1.00;;;;;;4420764;27;657291;-80
2021/11/01 00:26:16;;;;;;;31.33;14.40;;;4.30;1.00;;;;;;4378681;28;656553;-79
2021/11/01 00:29:05;;;;;;;28.17;13.30;;;4.40;1.00;;;;;;4406471;27;657216;-80
2021/11/01 00:31:53;;;;;;;27.57;13.13;;;4.20;1.00;;;;;;4378560;27;657783;-80
2021/11/01 00:34:42;;;;;;;31.60;13.80;;;4.20;1.00;;;;;;4385393;27;656773;-78
2021/11/01 00:37:30;;;;;;;42.47;15.07;;;4.20;1.00;;;;;;4412613;27;656651;-79
2021/11/01 00:40:19;;;;;;;30.73;14.37;;;4.10;1.00;;;;;;4421744;27;657066;-80
2021/11/01 00:43:09;;;;;;;30.13;14.37;;;4.10;1.00;;;;;;4435199;27;656727;-80
2021/11/01 00:45:57;;;;;;;30.07;14.57;;;4.00;1.00;;;;;;4374855;27;657083;-80
2021/11/01 00:48:44;;;;;;;36.20;16.43;;;4.00;1.00;;;;;;4399454;28;656623;-80
2021/11/01 00:51:36;;;;;;;37.73;16.30;;;3.90;1.00;;;;;;4382358;27;656464;-80
2021/11/01 00:54:23;;;;;;;38.30;17.60;;;3.90;1.00;;;;;;4379583;28;656905;-80
2021/11/01 00:57:12;;;;;;;34.90;16.73;;;3.90;1.00;;;;;;4472951;27;656940;-80
2021/11/01 01:00:00;;;;;;;34.23;15.27;;;3.90;1.00;;;;;;4399627;28;656895;-80
2021/11/01 01:02:48;;;;;;;33.33;15.90;;;4.00;1.00;;;;;;4381132;27;657963;-80
2021/11/01 01:05:35;;;;;;;31.60;15.70;;;3.90;1.00;;;;;;4383334;27;657364;-79
2021/11/01 01:08:23;;;;;;;34.93;15.97;;;3.90;1.00;;;;;;4396272;28;657932;-80
2021/11/01 01:11:11;;;;;;;37.47;15.77;;;3.90;1.00;;;;;;4376846;28;656773;-80
2021/11/01 01:14:00;;;;;;;33.47;15.57;;;3.90;1.00;;;;;;4398276;28;658695;-80
2021/11/01 01:16:47;;;;;;;33.13;14.40;;;3.90;1.00;;;;;;4376974;28;657335;-81
2021/11/01 01:19:44;;;;;;;30.20;14.03;;;3.90;1.00;;;;;;4390528;28;656459;-79
2021/11/01 01:22:31;;;;;;;27.93;13.57;;;3.90;1.00;;;;;;4383607;28;656781;-80
2021/11/01 01:25:30;;;;;;;28.60;13.80;;;3.90;1.00;;;;;;4402211;28;656885;-80
2021/11/01 01:28:19;;;;;;;31.67;13.00;;;3.90;1.00;;;;;;4384783;28;657930;-80
2021/11/01 01:31:08;;;;;;;33.97;14.83;;;3.90;1.00;;;;;;4376213;28;657318;-80
2021/11/01 01:33:56;;;;;;;27.73;13.47;;;3.90;1.00;;;;;;4387767;28;657318;-79
2021/11/01 01:36:45;;;;;;;30.03;13.37;;;3.80;1.00;;;;;;4406515;27;657148;-80
2021/11/01 01:39:33;;;;;;;31.97;13.13;;;3.80;1.00;;;;;;4372238;28;657488;-80
2021/11/01 01:42:20;;;;;;;27.43;12.17;;;3.80;1.00;;;;;;4383811;28;656213;-79
2021/11/01 01:45:09;;;;;;;30.87;12.30;;;3.80;1.00;;;;;;4396041;28;658292;-80
2021/11/01 01:47:59;;;;;;;28.30;12.43;;;3.90;1.00;;;;;;4385672;28;657078;-80
2021/11/01 01:50:46;;;;;;;25.43;10.60;;;3.90;1.00;;;;;;4378733;28;657103;-80
2021/11/01 01:53:34;;;;;;;28.50;12.10;;;3.90;1.00;;;;;;4405484;27;657571;-79
2021/11/01 01:56:22;;;;;;;28.43;11.90;;;4.00;1.00;;;;;;4382174;28;656497;-80
2021/11/01 01:59:17;;;;;;;25.57;11.00;;;4.00;1.00;;;;;;4469146;28;656709;-79
2021/11/01 02:02:05;;;;;;;23.48;10.68;;;4.00;1.00;;;;;;4442725;27;658476;-80
2021/11/01 02:04:54;;;;;;;26.47;10.90;;;4.00;1.00;;;;;;4459490;27;657202;-80
2021/11/01 02:07:45;;;;;;;22.20;9.67;;;4.00;1.00;;;;;;4452937;27;656561;-79
2021/11/01 02:10:34;;;;;;;20.07;9.50;;;4.00;1.00;;;;;;4454864;27;656081;-79
2021/11/01 02:13:24;;;;;;;27.33;13.47;;;4.00;1.00;;;;;;4451970;28;656766;-80
2021/11/01 02:16:13;;;;;;;27.73;12.53;;;4.00;1.00;;;;;;4452205;27;656810;-80
2021/11/01 02:19:02;;;;;;;24.63;11.20;;;4.00;1.00;;;;;;4451729;27;658011;-80
2021/11/01 02:21:53;;;;;;;24.30;11.20;;;4.00;1.00;;;;;;4474309;28;656293;-80
2021/11/01 02:24:45;;;;;;;29.00;10.90;;;4.00;1.00;;;;;;4450305;28;657277;-80
2021/11/01 02:27:36;;;;;;;21.42;9.77;;;4.00;1.00;;;;;;4452071;27;657353;-80
2021/11/01 02:30:24;;;;;;;24.33;10.20;;;4.00;1.00;;;;;;4458227;27;656568;-80
2021/11/01 02:33:13;;;;;;;22.57;10.30;;;3.90;1.00;;;;;;4459555;27;656307;-79
2021/11/01 02:36:00;;;;;;;21.23;10.00;;;3.90;1.00;;;;;;4462427;28;657698;-79
2021/11/01 02:38:50;;;;;;;24.60;9.90;;;3.90;1.00;;;;;;4484159;27;657687;-80
2021/11/01 02:41:38;;;;;;;20.03;9.77;;;3.90;1.00;;;;;;4461684;27;655866;-80
2021/11/01 02:44:28;;;;;;;26.37;11.23;;;3.80;1.00;;;;;;4466077;27;655977;-80
2021/11/01 02:47:16;;;;;;;21.20;10.05;;;3.70;1.00;;;;;;4460565;27;656506;-79
2021/11/01 02:50:06;;;;;;;20.48;10.07;;;3.70;1.00;;;;;;4473784;28;657573;-80
2021/11/01 02:52:53;;;;;;;25.33;10.50;;;3.60;1.00;;;;;;4447618;28;656941;-80
2021/11/01 02:55:41;;;;;;;24.67;10.77;;;3.60;1.00;;;;;;4452729;27;656368;-80
2021/11/01 02:58:29;;;;;;;23.30;10.40;;;3.60;1.00;;;;;;4446297;27;657060;-80
2021/11/01 03:01:18;;;;;;;25.93;11.00;;;3.50;1.00;;;;;;4386531;27;656291;-80
2021/11/01 03:04:06;;;;;;;25.87;11.23;;;3.50;1.00;;;;;;4403634;27;656850;-80
2021/11/01 03:06:54;;;;;;;23.87;11.73;;;3.40;1.00;;;;;;4506741;27;657329;-80
2021/11/01 03:09:45;;;;;;;28.60;12.50;;;3.30;1.00;;;;;;4451170;27;656829;-79
2021/11/01 03:12:32;;;;;;;28.30;11.90;;;3.20;1.00;;;;;;4482343;27;657350;-79
2021/11/01 03:15:23;;;;;;;27.42;12.05;;;3.20;1.00;;;;;;4400350;28;656513;-80
2021/11/01 03:18:12;;;;;;;20.17;10.20;;;3.30;1.00;;;;;;4369265;27;656941;-78
2021/11/01 03:20:59;;;;;;;20.00;9.73;;;3.30;1.00;;;;;;4465738;27;656647;-80
2021/11/01 03:23:48;;;;;;;20.50;9.27;;;3.30;1.00;;;;;;4439882;27;656507;-79
2021/11/01 03:26:36;;;;;;;22.03;11.07;;;3.40;1.00;;;;;;4381560;27;655282;-79
2021/11/01 03:29:23;;;;;;;28.00;11.80;;;3.40;1.00;;;;;;4442322;27;657056;-80
2021/11/01 03:32:11;;;;;;;20.53;10.27;;;3.40;1.00;;;;;;4472010;27;656852;-79
2021/11/01 03:35:00;;;;;;;23.33;11.17;;;3.30;1.00;;;;;;4490329;27;657478;-80
2021/11/01 03:37:50;;;;;;;23.30;10.35;;;3.30;1.00;;;;;;4433065;27;656765;-79
2021/11/01 03:40:39;;;;;;;20.20;9.30;;;3.30;1.00;;;;;;4428704;27;657757;-79
2021/11/01 03:43:30;;;;;;;22.93;9.67;;;3.30;1.00;;;;;;4393703;28;655545;-79
2021/11/01 03:46:23;;;;;;;22.17;10.15;;;3.30;1.00;;;;;;4403081;27;656388;-80
2021/11/01 03:49:12;;;;;;;21.00;9.40;;;3.30;1.00;;;;;;4424714;27;656898;-79
2021/11/01 03:52:09;;;;;;;19.97;10.17;;;3.40;1.00;;;;;;4412804;27;656902;-79
2021/11/01 03:54:57;;;;;;;19.23;9.57;;;3.40;1.00;;;;;;4397652;27;657530;-80
2021/11/01 03:57:45;;;;;;;21.27;9.40;;;3.40;1.00;;;;;;4500494;27;655549;-79
2021/11/01 04:00:34;;;;;;;19.70;9.63;;;3.30;1.00;;;;;;4432180;27;655610;-79
2021/11/01 04:03:22;;;;;;;18.13;9.30;;;3.30;1.00;;;;;;4387690;27;655513;-79
2021/11/01 04:06:10;;;;;;;16.40;8.83;;;3.30;1.00;;;;;;4472843;27;654936;-79
2021/11/01 04:08:59;;;;;;;21.20;10.37;;;3.40;1.00;;;;;;4421937;27;657003;-79
2021/11/01 04:11:49;;;;;;;23.33;10.90;;;3.40;1.00;;;;;;4376531;28;656547;-79
2021/11/01 04:14:40;;;;;;;23.50;10.07;;;3.40;1.00;;;;;;4457566;27;657223;-78
2021/11/01 04:17:37;;;;;;;24.10;10.37;;;3.40;1.00;;;;;;4451551;27;657044;-78
2021/11/01 04:20:31;;;;;;;21.33;9.33;;;3.30;1.00;;;;;;4380882;27;656443;-78
2021/11/01 04:23:21;;;;;;;21.97;9.77;;;3.20;1.00;;;;;;4385261;27;656056;-79
2021/11/01 04:26:14;;;;;;;21.63;9.87;;;3.20;1.00;;;;;;4379542;28;655745;-78
2021/11/01 04:29:04;;;;;;;21.57;9.60;;;3.30;1.00;;;;;;4459755;27;655695;-79
2021/11/01 04:31:59;;;;;;;18.80;8.70;;;3.30;1.00;;;;;;4430206;27;655686;-79
2021/11/01 04:34:50;;;;;;;21.40;9.37;;;3.40;1.00;;;;;;4397114;27;656143;-77
2021/11/01 04:37:38;;;;;;;19.80;9.40;;;3.40;1.00;;;;;;4423444;27;657001;-78
2021/11/01 04:40:34;;;;;;;20.40;9.53;;;3.30;1.00;;;;;;4407484;27;656557;-78
2021/11/01 04:53:02;;;;;;;19.10;9.10;;;3.10;1.00;;;;;;4400297;27;655597;-79
2021/11/01 04:55:51;;;;;;;21.50;9.83;;;3.10;1.00;;;;;;4468614;27;655164;-80
2021/11/01 04:58:43;;;;;;;21.43;9.67;;;3.30;1.00;;;;;;4477895;27;655895;-80
2021/11/01 05:01:34;;;;;;;21.90;9.77;;;3.30;1.00;;;;;;4452478;27;656270;-81
2021/11/01 05:04:24;;;;;;;21.03;10.00;;;3.40;1.00;;;;;;4450871;27;655258;-80
2021/11/01 05:07:12;;;;;;;18.83;9.03;;;3.50;1.00;;;;;;4452512;27;656424;-80
2021/11/01 05:10:03;;;;;;;20.77;9.77;;;3.60;1.00;;;;;;4477793;27;656024;-78
2021/11/01 05:12:51;;;;;;;20.57;9.30;;;3.70;1.00;;;;;;4451996;27;655819;-80
2021/11/01 05:15:45;;;;;;;16.10;7.90;;;3.80;1.00;;;;;;4484456;27;656597;-80
2021/11/01 05:18:36;;;;;;;16.57;8.57;;;3.80;1.00;;;;;;4455459;27;656458;-77
2021/11/01 05:22:19;;;;;;;18.63;8.30;;;3.80;1.00;;;;;;4444081;28;655650;-80
2021/11/01 05:25:11;;;;;;;19.60;8.10;;;3.90;1.00;;;;;;4449832;28;655557;-80
2021/11/01 05:28:04;;;;;;;24.50;10.23;;;3.90;1.00;;;;;;4461958;28;656250;-80
2021/11/01 05:30:56;;;;;;;18.50;9.10;;;4.00;1.00;;;;;;4448347;28;656578;-79
2021/11/01 05:33:54;;;;;;;20.67;10.00;;;3.90;1.00;;;;;;4454643;28;655898;-81
2021/11/01 05:36:42;;;;;;;21.03;8.33;;;3.90;1.00;;;;;;4444507;28;656771;-79
2021/11/01 05:39:29;;;;;;;23.80;9.90;;;3.90;1.00;;;;;;4484365;28;655224;-80
2021/11/01 05:42:17;;;;;;;23.33;10.80;;;3.90;1.00;;;;;;4447500;28;656576;-77
2021/11/01 05:45:06;;;;;;;27.10;11.53;;;3.80;1.00;;;;;;4473316;28;656692;-78
2021/11/01 05:47:57;;;;;;;25.47;11.27;;;3.80;1.00;;;;;;4454958;28;657929;-80
2021/11/01 05:50:45;;;;;;;28.03;10.83;;;3.90;1.00;;;;;;4456547;28;655993;-80
2021/11/01 05:54:14;;;;;;;28.33;10.73;;;3.90;1.00;;;;;;4454688;28;657414;-79
2021/11/01 05:57:08;;;;;;;26.63;10.80;;;3.90;1.00;;;;;;4397371;28;656546;-79
2021/11/01 06:03:00;;;;;;;27.97;11.30;;;3.90;1.00;;;;;;4378345;27;657665;-79
2021/11/01 06:09:30;;;;;;;31.80;12.17;;;4.00;1.00;;;;;;4382808;28;656988;-80
2021/11/01 06:15:27;;;;;;;22.93;10.37;;;4.20;1.00;;;;;;4372395;28;657496;-80
2021/11/01 06:18:14;;;;;;;24.50;10.67;;;4.30;1.00;;;;;;4344415;28;656663;-79
2021/11/01 06:21:04;;;;;;;22.37;9.60;;;4.40;1.00;;;;;;4365211;28;657568;-79
2021/11/01 06:23:54;;;;;;;22.65;9.60;;;4.50;1.00;;;;;;4336821;28;655597;-80
2021/11/01 06:26:42;;;;;;;16.47;7.97;;;4.60;1.00;;;;;;4341284;28;655813;-79
2021/11/01 06:29:33;;;;;;;23.83;9.77;;;4.70;1.00;;;;;;4374971;28;655600;-79
2021/11/01 06:32:30;;;;;;;23.00;9.40;;;4.80;1.00;;;;;;4331642;28;655999;-80
2021/11/01 06:41:43;;;;;;;17.20;7.63;;;5.30;1.00;;;;;;4382667;28;655625;-80
2021/11/01 06:44:43;;;;;;;21.33;9.00;;;5.50;1.00;;;;;;4325340;28;655883;-78
2021/11/01 06:50:50;;;;;;;19.53;8.67;;;5.80;1.00;;;;;;4448407;27;656510;-79
2021/11/01 06:56:59;;;;;;;15.93;7.83;;;6.20;1.00;;;;;;4420834;27;655814;-79
2021/11/01 07:15:21;;;;;;;18.23;7.53;;;7.30;99.90;;;;;;4399164;27;656560;-80
2021/11/01 07:18:12;;;;;;;15.70;7.20;;;7.50;99.90;;;;;;4391479;27;657581;-80
2021/11/01 07:21:11;;;;;;;16.83;8.07;;;7.70;99.90;;;;;;4386195;28;656419;-79
2021/11/01 08:29:58;;;;;;;14.03;7.00;;;14.70;99.90;;;;;;4403436;28;656968;-80
2021/11/01 08:36:10;;;;;;;15.27;6.97;;;15.20;95.40;;;;;;4389360;28;658049;-80
2021/11/01 08:45:34;;;;;;;13.83;6.93;;;15.70;1.00;;;;;;4320972;28;657531;-78
2021/11/01 08:51:47;;;;;;;12.50;7.00;;;16.00;1.00;;;;;;4338432;28;656632;-79
2021/11/01 09:04:08;;;;;;;12.77;6.90;;;17.50;99.90;;;;;;4375962;28;656786;-79
2021/11/01 09:10:32;;;;;;;11.03;6.73;;;18.10;99.90;;;;;;4325185;28;657915;-79
2021/11/01 09:19:52;;;;;;;13.07;6.97;;;19.20;99.90;;;;;;4324800;28;658427;-79
2021/11/01 09:26:00;;;;;;;9.50;6.33;;;19.50;99.90;;;;;;4286191;28;657599;-80
2021/11/01 09:28:54;;;;;;;12.40;6.67;;;19.50;99.90;;;;;;4286286;28;656910;-79
2021/11/01 09:41:07;;;;;;;15.20;6.87;;;19.90;99.90;;;;;;4307483;28;657636;-79
2021/11/01 09:43:57;;;;;;;15.23;7.40;;;20.10;99.90;;;;;;4340581;28;661035;-80
2021/11/01 09:46:48;;;;;;;10.47;6.43;;;19.90;99.90;;;;;;4363881;28;657435;-80
2021/11/01 09:49:43;;;;;;;10.97;6.50;;;20.20;99.90;;;;;;4393297;28;658042;-80
2021/11/01 09:52:34;;;;;;;10.67;6.60;;;20.50;99.90;;;;;;4393579;28;657949;-80
2021/11/01 09:55:43;;;;;;;10.63;6.40;;;20.80;98.00;;;;;;4393387;28;657608;-80
2021/11/01 10:01:43;;;;;;;10.90;5.87;;;21.90;61.60;;;;;;4393398;28;657770;-80
2021/11/01 10:04:36;;;;;;;9.77;6.13;;;21.70;18.20;;;;;;4392629;28;657912;-79
2021/11/01 10:07:32;;;;;;;8.30;5.33;;;21.70;17.50;;;;;;4394671;28;657017;-80
2021/11/01 10:10:26;;;;;;;9.70;5.70;;;21.40;5.50;;;;;;4398031;28;656614;-80
2021/11/01 10:13:19;;;;;;;8.97;5.67;;;21.40;1.00;;;;;;4395010;28;656210;-80
2021/11/01 10:19:27;;;;;;;9.00;5.20;;;22.60;1.00;;;;;;4380319;28;655394;-80
2021/11/01 10:22:24;;;;;;;8.53;5.20;;;22.70;1.00;;;;;;4398267;28;655537;-80
2021/11/01 10:25:19;;;;;;;11.13;5.77;;;22.90;1.00;;;;;;4377329;28;655587;-80
2021/11/01 10:28:07;;;;;;;9.43;5.50;;;23.60;1.00;;;;;;4356128;28;657141;-80
2021/11/01 10:31:10;;;;;;;11.47;5.57;;;23.70;1.00;;;;;;4402273;28;654966;-80
2021/11/01 10:34:10;;;;;;;8.47;5.60;;;23.30;1.00;;;;;;4379083;28;657035;-80
2021/11/01 10:36:59;;;;;;;10.17;5.73;;;23.30;1.00;;;;;;4380824;28;655179;-80
2021/11/01 10:39:56;;;;;;;9.27;5.97;;;23.10;1.00;;;;;;4382120;28;656622;-80
2021/11/01 10:42:45;;;;;;;10.20;5.97;;;22.90;1.00;;;;;;4376170;28;656635;-80
2021/11/01 10:45:49;;;;;;;11.27;5.97;;;23.00;1.00;;;;;;4374768;28;657891;-80
2021/11/01 11:13:23;;;;;;;9.90;6.35;;;25.70;1.00;;;;;;4451142;28;656686;-81
2021/11/01 11:16:20;;;;;;;10.48;6.95;;;25.60;1.00;;;;;;4428936;28;656020;-81
2021/11/01 11:19:17;;;;;;;10.60;7.00;;;26.20;1.00;;;;;;4446350;28;656823;-82
2021/11/01 11:25:40;;;;;;;11.43;6.60;;;26.00;1.00;;;;;;4450251;28;656674;-81
2021/11/01 11:28:47;;;;;;;11.48;6.63;;;26.20;1.00;;;;;;4449670;28;657001;-81
2021/11/01 11:32:15;;;;;;;9.80;5.60;;;26.70;1.00;;;;;;4449566;28;656793;-82
2021/11/01 11:38:23;;;;;;;9.27;6.03;;;26.70;1.00;;;;;;4375027;28;657523;-82
2021/11/01 11:47:23;;;;;;;8.35;5.47;;;27.50;1.00;;;;;;4325798;28;655608;-82
2021/11/01 11:50:13;;;;;;;7.40;5.32;;;27.60;1.00;;;;;;4306191;28;655900;-82
2021/11/01 11:53:09;;;;;;;7.40;4.63;;;26.80;1.00;;;;;;4328485;28;655464;-81
2021/11/01 11:56:05;;;;;;;9.43;4.88;;;26.80;1.00;;;;;;4324551;28;655547;-82
2021/11/01 11:58:53;;;;;;;8.27;5.55;;;26.70;1.00;;;;;;4311849;28;655684;-82
2021/11/01 12:01:45;;;;;;;14.45;6.65;;;27.30;1.00;;;;;;4321972;28;655667;-82
2021/11/01 12:04:35;;;;;;;8.27;5.53;;;27.70;1.00;;;;;;4310803;28;657007;-83
2021/11/01 12:07:23;;;;;;;11.35;5.60;;;27.60;1.00;;;;;;4311526;28;656174;-82
2021/11/01 12:10:15;;;;;;;8.50;5.13;;;28.00;1.00;;;;;;4310305;28;656680;-81
2021/11/01 12:13:13;;;;;;;7.50;5.00;;;28.70;1.00;;;;;;4311750;28;655433;-82
2021/11/01 12:19:08;;;;;;;8.20;4.95;;;30.00;1.00;;;;;;4310043;28;656102;-80
2021/11/01 12:22:02;;;;;;;7.32;4.30;;;31.00;1.00;;;;;;4309367;28;655767;-81
2021/11/01 12:24:54;;;;;;;9.90;4.85;;;31.80;1.00;;;;;;4313796;28;655485;-81
2021/11/01 12:27:49;;;;;;;7.30;4.83;;;32.40;1.00;;;;;;4360058;28;655856;-81
2021/11/01 12:30:45;;;;;;;9.73;5.10;;;32.50;1.00;;;;;;4360163;28;655932;-82
2021/11/01 12:33:33;;;;;;;5.55;4.47;;;32.30;1.00;;;;;;4338839;28;655660;-82
2021/11/01 12:36:27;;;;;;;6.68;4.57;;;32.60;1.00;;;;;;4361412;28;655924;-81
2021/11/01 12:39:20;;;;;;;7.07;4.80;;;32.80;1.00;;;;;;4376854;28;655621;-81
2021/11/01 12:42:37;;;;;;;6.15;4.50;;;32.70;1.00;;;;;;4360672;28;655900;-82
2021/11/01 12:57:59;;;;;;;9.98;4.85;;;34.10;1.00;;;;;;4344112;28;656008;-83
2021/11/01 13:00:48;;;;;;;7.38;4.55;;;33.90;1.00;;;;;;4343675;28;655772;-83
2021/11/01 13:03:36;;;;;;;9.85;5.43;;;34.30;1.00;;;;;;4344800;28;655840;-82
2021/11/01 13:06:34;;;;;;;7.60;5.32;;;34.70;1.00;;;;;;4363435;28;655477;-83
2021/11/01 13:09:26;;;;;;;9.00;4.97;;;34.60;1.00;;;;;;4344556;28;655605;-82
2021/11/01 13:12:32;;;;;;;6.70;4.60;;;35.10;1.00;;;;;;4340766;28;655844;-83
2021/11/01 13:18:26;;;;;;;6.88;5.00;;;35.60;1.00;;;;;;4322218;28;655739;-81
2021/11/01 13:21:17;;;;;;;7.20;5.05;;;35.10;1.00;;;;;;4366465;28;655900;-83
2021/11/01 13:24:09;;;;;;;6.23;4.40;;;35.20;1.00;;;;;;4343883;28;656080;-84
2021/11/01 13:27:10;;;;;;;6.60;4.70;;;35.30;1.00;;;;;;4340307;28;655772;-83
2021/11/01 13:36:25;;;;;;;9.48;5.28;;;35.50;1.00;;;;;;4393788;28;656498;-82
2021/11/01 13:39:22;;;;;;;7.90;4.65;;;35.00;1.00;;;;;;4378544;28;656021;-82
2021/11/01 13:42:12;;;;;;;9.10;5.68;;;34.90;1.00;;;;;;4373734;28;655917;-82
2021/11/01 13:45:11;;;;;;;8.30;5.28;;;35.10;1.00;;;;;;4397419;28;655368;-80
2021/11/01 13:48:00;;;;;;;8.68;5.45;;;35.00;1.00;;;;;;4375376;28;656069;-82
2021/11/01 13:50:48;;;;;;;9.50;5.47;;;35.40;1.00;;;;;;4379904;28;655871;-83
2021/11/01 13:53:41;;;;;;;10.15;6.13;;;35.20;1.00;;;;;;4382059;28;656095;-80
2021/11/01 13:56:35;;;;;;;10.17;6.13;;;35.50;1.00;;;;;;4379683;28;658270;-82
2021/11/01 13:59:35;;;;;;;9.43;5.90;;;35.30;1.00;;;;;;4448031;28;657633;-83
2021/11/01 14:11:54;;;;;;;10.40;5.63;;;34.80;1.00;;;;;;4363837;28;655425;-82
2021/11/01 14:14:51;;;;;;;9.83;5.77;;;34.40;1.00;;;;;;4362484;28;657041;-82
2021/11/01 14:26:47;;;;;;;8.88;6.05;;;34.10;1.00;;;;;;4363020;28;656925;-82
2021/11/01 14:37:07;;;;;;;9.73;6.00;;;32.10;1.00;;;;;;4455823;28;650587;-80
2021/11/01 15:08:45;;;;;;;12.23;6.90;;;18.50;1.00;;;;;;4379112;28;652605;-80
2021/11/01 15:17:56;;;;;;;15.03;7.87;;;16.30;1.00;;;;;;4372836;28;652976;-80
2021/11/01 15:20:59;;;;;;;13.77;7.83;;;15.70;1.00;;;;;;4373020;28;652280;-79
2021/11/01 15:27:15;;;;;;;14.40;7.37;;;14.80;1.00;;;;;;4372922;28;652591;-80
2021/11/01 15:36:38;;;;;;;15.13;8.43;;;13.50;1.00;;;;;;4421033;28;653459;-80
2021/11/01 15:39:55;;;;;;;16.87;9.37;;;13.10;1.00;;;;;;4422637;28;652392;-78
2021/11/01 16:17:06;;;;;;;34.97;15.77;;;10.60;1.00;;;;;;4343616;28;654343;-80
2021/11/01 16:19:55;;;;;;;34.93;15.30;;;10.40;1.00;;;;;;4339778;28;654151;-81
2021/11/01 16:22:44;;;;;;;30.03;14.03;;;10.30;99.90;;;;;;4341359;28;654271;-80
2021/11/01 16:25:31;;;;;;;28.60;14.90;;;10.20;99.90;;;;;;4354032;28;654508;-80
2021/11/01 16:28:19;;;;;;;30.33;14.57;;;10.00;1.00;;;;;;4448732;28;654422;-78
2021/11/01 16:31:22;;;;;;;27.07;13.43;;;10.00;99.90;;;;;;4433298;28;653254;-80
2021/11/01 16:34:14;;;;;;;26.13;13.40;;;9.80;1.00;;;;;;4433085;27;654309;-80
2021/11/01 16:37:19;;;;;;;21.97;11.63;;;9.70;1.00;;;;;;4470188;27;652927;-80
2021/11/01 16:40:08;;;;;;;22.97;11.67;;;9.50;1.00;;;;;;4471839;27;652287;-80
2021/11/01 16:42:56;;;;;;;28.40;13.60;;;9.40;99.90;;;;;;4471669;27;652464;-79
2021/11/01 16:45:46;;;;;;;28.63;12.73;;;9.40;1.00;;;;;;4493602;27;654454;-80
2021/11/01 16:48:34;;;;;;;63.33;22.93;;;9.30;1.00;;;;;;4467537;27;652712;-81
2021/11/01 16:51:22;;;;;;;76.13;25.57;;;9.10;1.00;;;;;;4460249;27;652228;-79
2021/11/01 16:54:14;;;;;;;79.53;23.33;;;9.00;1.00;;;;;;4489934;27;651897;-80
2021/11/01 16:57:06;;;;;;;145.90;33.93;;;8.90;1.00;;;;;;4444643;27;653197;-80
2021/11/01 16:59:58;;;;;;;212.90;54.77;;;8.80;1.00;;;;;;4470221;27;654363;-80
2021/11/01 17:02:52;;;;;;;158.73;45.50;;;8.80;99.90;;;;;;4446781;27;653657;-80
2021/11/01 17:06:07;;;;;;;145.13;41.70;;;8.70;1.00;;;;;;4463853;27;654244;-80
2021/11/01 17:21:40;;;;;;;67.17;27.37;;;8.20;42.70;;;;;;4364468;28;654268;-80
2021/11/01 17:24:38;;;;;;;39.77;18.53;;;8.10;99.90;;;;;;4375081;28;654806;-80
2021/11/01 17:27:39;;;;;;;35.13;16.87;;;8.10;99.90;;;;;;4363593;28;655086;-78
2021/11/01 17:36:48;;;;;;;46.60;16.77;;;7.80;99.90;;;;;;4352158;28;654964;-81
2021/11/01 18:41:36;;;;;;;58.00;25.00;;;6.90;1.00;;;;;;4442257;28;654899;-81
2021/11/01 18:44:54;;;;;;;53.10;22.77;;;6.90;1.00;;;;;;4463371;28;653874;-80
2021/11/01 18:51:02;;;;;;;57.40;22.87;;;6.90;1.00;;;;;;4460712;28;653777;-80
2021/11/01 18:53:57;;;;;;;56.53;23.50;;;7.00;1.00;;;;;;4468266;28;653522;-80
2021/11/01 18:56:45;;;;;;;55.00;22.73;;;7.00;1.00;;;;;;4464593;28;653881;-80
2021/11/01 18:59:36;;;;;;;87.73;35.13;;;7.20;1.00;;;;;;4464486;28;655088;-80
2021/11/01 19:02:41;;;;;;;76.87;33.27;;;7.20;1.00;;;;;;4467442;28;653773;-80
2021/11/01 19:05:33;;;;;;;65.07;27.90;;;7.30;1.00;;;;;;4452364;28;653758;-81
2021/11/01 19:08:27;;;;;;;42.63;19.70;;;7.30;1.00;;;;;;4445246;28;653742;-79
2021/11/01 20:13:31;;;;;;;146.57;54.03;;;8.90;1.00;;;;;;4418543;28;656398;-79
2021/11/01 21:24:58;;;;;;;69.97;31.40;;;9.70;1.00;;;;;;4439778;27;654862;-80
2021/11/01 21:27:46;;;;;;;45.87;22.53;;;9.80;1.00;;;;;;4453056;27;654725;-80
2021/11/01 21:30:34;;;;;;;41.67;19.13;;;9.90;99.90;;;;;;4470805;27;654746;-80
2021/11/01 21:33:23;;;;;;;38.87;18.43;;;10.00;99.90;;;;;;4448234;27;655594;-79
2021/11/01 21:36:13;;;;;;;43.50;19.70;;;10.20;99.90;;;;;;4447934;27;656823;-79
2021/11/01 21:39:02;;;;;;;40.95;19.27;;;10.30;99.90;;;;;;4461511;27;657037;-78
2021/11/01 21:41:50;;;;;;;37.60;18.53;;;10.30;99.90;;;;;;4477426;27;656852;-80
2021/11/01 21:44:38;;;;;;;37.37;17.87;;;10.40;99.90;;;;;;4457458;27;657696;-79
2021/11/01 21:47:26;;;;;;;46.57;20.77;;;10.40;99.90;;;;;;4452518;27;656650;-79
2021/11/01 21:50:15;;;;;;;40.60;19.03;;;10.50;99.90;;;;;;4471055;27;657389;-80
2021/11/01 21:53:04;;;;;;;38.77;18.20;;;10.50;99.90;;;;;;4451036;27;656837;-79
2021/11/01 21:55:53;;;;;;;36.90;16.63;;;10.50;99.90;;;;;;4441528;28;656715;-79
2021/11/01 21:59:05;;;;;;;41.20;19.47;;;10.50;99.90;;;;;;4440734;27;656275;-79
2021/11/01 22:17:25;;;;;;;31.90;16.73;;;10.50;99.90;;;;;;4387352;28;656303;-79
2021/11/01 22:20:15;;;;;;;38.67;17.57;;;10.40;48.20;;;;;;4374412;28;657223;-79
2021/11/01 22:23:07;;;;;;;32.03;15.93;;;10.40;9.70;;;;;;4393923;28;657627;-79
2021/11/01 22:26:01;;;;;;;42.13;17.40;;;10.40;1.00;;;;;;4395385;28;656461;-79
2021/11/01 22:32:23;;;;;;;39.83;19.90;;;10.40;1.00;;;;;;4387058;28;655630;-79
2021/11/01 22:38:25;;;;;;;40.20;18.63;;;10.40;1.00;;;;;;4372009;28;655495;-79
2021/11/01 22:41:25;;;;;;;40.87;18.10;;;10.40;1.00;;;;;;4394790;28;656693;-78
2021/11/01 22:44:42;;;;;;;36.70;17.70;;;10.40;1.00;;;;;;4373484;28;655820;-79
2021/11/01 22:47:55;;;;;;;39.63;18.83;;;10.30;1.00;;;;;;4443946;28;655664;-79
2021/11/01 22:57:03;;;;;;;30.77;16.10;;;10.30;1.00;;;;;;4462854;27;655757;-79
2021/11/01 22:59:53;;;;;;;34.70;17.43;;;10.20;1.00;;;;;;4446440;27;656365;-79
2021/11/01 23:02:41;;;;;;;31.88;16.15;;;10.20;1.00;;;;;;4470788;27;655640;-80
2021/11/01 23:05:39;;;;;;;33.33;17.53;;;10.20;1.00;;;;;;4484616;27;656194;-79
2021/11/01 23:33:09;;;;;;;33.17;17.77;;;10.00;1.00;;;;;;4444032;27;656742;-80
2021/11/01 23:35:57;;;;;;;34.87;17.30;;;10.00;1.00;;;;;;4455956;27;655939;-79
2021/11/01 23:38:44;;;;;;;38.97;18.77;;;9.90;1.00;;;;;;4466918;27;656564;-79
2021/11/01 23:41:31;;;;;;;45.78;19.48;;;10.00;1.00;;;;;;4442458;27;654415;-79
2021/11/01 23:44:20;;;;;;;38.77;17.83;;;9.80;18.30;;;;;;4470970;27;655818;-79
2021/11/01 23:47:07;;;;;;;36.30;16.33;;;9.80;32.20;;;;;;4446640;27;656445;-79
2021/11/01 23:49:56;;;;;;;28.77;14.30;;;9.80;45.90;;;;;;4487528;27;656485;-79
2021/11/01 23:52:55;;;;;;;28.20;13.87;;;9.80;41.10;;;;;;4438937;28;656049;-79
2021/11/01 23:55:42;;;;;;;38.07;18.47;;;9.80;38.40;;;;;;4440811;27;655713;-79
2021/11/01 23:58:30;;;;;;;33.80;16.87;;;9.80;39.40;;;;;;4479933;27;654754;-79
